sensor_id;sensor_type;location;lat;lon;timestamp;temperature;humidity
19652;DHT22;9974;52.146;14.668;2024-03-08T00:01:01;0.10;99.90
19652;DHT22;9974;52.146;14.668;2024-03-08T00:03:26;-0.10;99.90
19652;DHT22;9974;52.146;14.668;2024-03-08T00:05:54;0.10;99.90
19652;DHT22;9974;52.146;14.668;2024-03-08T00:08:20;0.00;99.90
19652;DHT22;9974;52.146;14.668;2024-03-08T00:10:45;0.00;99.90
19652;DHT22;9974;52.146;14.668;2024-03-08T00:13:11;0.00;99.90
19652;DHT22;9974;52.146;14.668;2024-03-08T00:15:36;-0.20;99.90
19652;DHT22;9974;52.146;14.668;2024-03-08T00:18:02;-0.20;99.90
19652;DHT22;9974;52.146;14.668;2024-03-08T00:20:28;-0.20;99.90
19652;DHT22;9974;52.146;14.668;2024-03-08T00:22:53;-0.20;99.90
19652;DHT22;9974;52.146;14.668;2024-03-08T00:25:19;-0.30;99.90
19652;DHT22;9974;52.146;14.668;2024-03-08T00:27:45;-0.30;99.90
19652;DHT22;9974;52.146;14.668;2024-03-08T00:30:10;-0.40;99.90
19652;DHT22;9974;52.146;14.668;2024-03-08T00:32:38;-0.40;99.90
19652;DHT22;9974;52.146;14.668;2024-03-08T00:35:03;-0.30;99.90
19652;DHT22;9974;52.146;14.668;2024-03-08T00:37:29;-0.30;99.90
19652;DHT22;9974;52.146;14.668;2024-03-08T00:39:55;-0.30;99.90
19652;DHT22;9974;52.146;14.668;2024-03-08T00:42:21;-0.30;99.90
19652;DHT22;9974;52.146;14.668;2024-03-08T00:44:46;-0.30;99.90
19652;DHT22;9974;52.146;14.668;2024-03-08T00:47:13;-0.40;99.90
19652;DHT22;9974;52.146;14.668;2024-03-08T00:49:41;-0.40;99.90
19652;DHT22;9974;52.146;14.668;2024-03-08T00:52:06;-0.50;99.90
19652;DHT22;9974;52.146;14.668;2024-03-08T00:54:32;-0.50;99.90
19652;DHT22;9974;52.146;14.668;2024-03-08T00:56:58;-0.50;99.90
19652;DHT22;9974;52.146;14.668;2024-03-08T00:59:23;-0.50;99.90
19652;DHT22;9974;52.146;14.668;2024-03-08T01:01:49;-0.50;99.90
19652;DHT22;9974;52.146;14.668;2024-03-08T01:04:15;-0.50;99.90
19652;DHT22;9974;52.146;14.668;2024-03-08T01:06:40;-0.50;99.90
19652;DHT22;9974;52.146;14.668;2024-03-08T01:09:10;-0.30;99.90
19652;DHT22;9974;52.146;14.668;2024-03-08T01:11:37;-0.30;99.90
19652;DHT22;9974;52.146;14.668;2024-03-08T01:14:03;-0.50;99.90
19652;DHT22;9974;52.146;14.668;2024-03-08T01:16:28;-0.60;99.90
19652;DHT22;9974;52.146;14.668;2024-03-08T01:18:54;-0.50;99.90
19652;DHT22;9974;52.146;14.668;2024-03-08T01:21:20;-0.60;99.90
19652;DHT22;9974;52.146;14.668;2024-03-08T01:23:45;-0.60;99.90
19652;DHT22;9974;52.146;14.668;2024-03-08T01:26:11;-0.70;99.90
19652;DHT22;9974;52.146;14.668;2024-03-08T01:28:36;-0.80;99.90
19652;DHT22;9974;52.146;14.668;2024-03-08T01:31:02;-0.70;99.90
19652;DHT22;9974;52.146;14.668;2024-03-08T01:33:29;-0.70;99.90
19652;DHT22;9974;52.146;14.668;2024-03-08T01:35:55;-0.60;99.90
19652;DHT22;9974;52.146;14.668;2024-03-08T01:38:22;-0.60;99.90
19652;DHT22;9974;52.146;14.668;2024-03-08T01:40:48;-0.90;99.90
19652;DHT22;9974;52.146;14.668;2024-03-08T01:45:46;-0.90;99.90
19652;DHT22;9974;52.146;14.668;2024-03-08T01:48:12;-0.80;99.90
19652;DHT22;9974;52.146;14.668;2024-03-08T01:50:38;-0.80;99.90
19652;DHT22;9974;52.146;14.668;2024-03-08T01:53:04;-0.80;99.90
19652;DHT22;9974;52.146;14.668;2024-03-08T01:55:30;-0.80;99.90
19652;DHT22;9974;52.146;14.668;2024-03-08T01:57:56;-0.80;99.90
19652;DHT22;9974;52.146;14.668;2024-03-08T02:00:22;-0.90;99.90
19652;DHT22;9974;52.146;14.668;2024-03-08T02:02:49;-0.80;99.90
19652;DHT22;9974;52.146;14.668;2024-03-08T02:05:14;-0.80;99.90
19652;DHT22;9974;52.146;14.668;2024-03-08T02:07:41;-0.80;99.90
19652;DHT22;9974;52.146;14.668;2024-03-08T02:10:09;-0.90;99.90
19652;DHT22;9974;52.146;14.668;2024-03-08T02:12:35;-1.00;99.90
19652;DHT22;9974;52.146;14.668;2024-03-08T02:15:01;-1.00;99.90
19652;DHT22;9974;52.146;14.668;2024-03-08T02:17:26;-0.90;99.90
19652;DHT22;9974;52.146;14.668;2024-03-08T02:19:52;-1.10;99.90
19652;DHT22;9974;52.146;14.668;2024-03-08T02:22:17;-1.20;99.90
19652;DHT22;9974;52.146;14.668;2024-03-08T02:24:43;-1.10;99.90
19652;DHT22;9974;52.146;14.668;2024-03-08T02:27:09;-1.10;99.90
19652;DHT22;9974;52.146;14.668;2024-03-08T02:29:37;-0.90;99.90
19652;DHT22;9974;52.146;14.668;2024-03-08T02:32:02;-1.00;99.90
19652;DHT22;9974;52.146;14.668;2024-03-08T02:34:28;-1.10;99.90
19652;DHT22;9974;52.146;14.668;2024-03-08T02:36:56;-1.10;99.90
19652;DHT22;9974;52.146;14.668;2024-03-08T02:39:22;-1.20;99.90
19652;DHT22;9974;52.146;14.668;2024-03-08T02:41:47;-1.20;99.90
19652;DHT22;9974;52.146;14.668;2024-03-08T02:44:13;-1.30;99.90
19652;DHT22;9974;52.146;14.668;2024-03-08T02:46:40;-1.00;99.90
19652;DHT22;9974;52.146;14.668;2024-03-08T02:49:05;-1.00;99.90
19652;DHT22;9974;52.146;14.668;2024-03-08T02:51:33;-1.20;99.90
19652;DHT22;9974;52.146;14.668;2024-03-08T02:54:00;-1.40;99.90
19652;DHT22;9974;52.146;14.668;2024-03-08T02:56:26;-1.40;99.90
19652;DHT22;9974;52.146;14.668;2024-03-08T02:58:51;-1.50;99.90
19652;DHT22;9974;52.146;14.668;2024-03-08T03:01:17;-1.40;99.90
19652;DHT22;9974;52.146;14.668;2024-03-08T03:03:45;-1.50;99.90
19652;DHT22;9974;52.146;14.668;2024-03-08T03:06:12;-1.10;99.90
19652;DHT22;9974;52.146;14.668;2024-03-08T03:08:37;-1.30;99.90
19652;DHT22;9974;52.146;14.668;2024-03-08T03:11:03;-1.30;99.90
19652;DHT22;9974;52.146;14.668;2024-03-08T03:13:29;-1.20;99.90
19652;DHT22;9974;52.146;14.668;2024-03-08T03:15:55;-1.20;99.90
19652;DHT22;9974;52.146;14.668;2024-03-08T03:18:23;-1.30;99.90
19652;DHT22;9974;52.146;14.668;2024-03-08T03:20:49;-1.40;99.90
19652;DHT22;9974;52.146;14.668;2024-03-08T03:23:14;-1.40;99.90
19652;DHT22;9974;52.146;14.668;2024-03-08T03:28:11;-1.60;99.90
19652;DHT22;9974;52.146;14.668;2024-03-08T03:30:43;-1.40;99.90
19652;DHT22;9974;52.146;14.668;2024-03-08T03:33:11;-1.40;99.90
19652;DHT22;9974;52.146;14.668;2024-03-08T03:35:37;-1.50;99.90
19652;DHT22;9974;52.146;14.668;2024-03-08T03:38:03;-1.50;99.90
19652;DHT22;9974;52.146;14.668;2024-03-08T03:40:32;-1.60;99.90
19652;DHT22;9974;52.146;14.668;2024-03-08T03:42:58;-1.80;99.90
19652;DHT22;9974;52.146;14.668;2024-03-08T03:45:24;-1.80;99.90
19652;DHT22;9974;52.146;14.668;2024-03-08T03:47:50;-1.50;99.90
19652;DHT22;9974;52.146;14.668;2024-03-08T03:50:17;-1.50;99.90
19652;DHT22;9974;52.146;14.668;2024-03-08T03:52:45;-3.10;99.90
19652;DHT22;9974;52.146;14.668;2024-03-08T03:55:11;-1.40;99.90
19652;DHT22;9974;52.146;14.668;2024-03-08T03:57:37;-1.40;99.90
19652;DHT22;9974;52.146;14.668;2024-03-08T04:00:03;-1.50;99.90
19652;DHT22;9974;52.146;14.668;2024-03-08T04:02:30;-1.50;99.90
19652;DHT22;9974;52.146;14.668;2024-03-08T04:04:55;-1.50;99.90
19652;DHT22;9974;52.146;14.668;2024-03-08T04:07:21;-1.60;99.90
19652;DHT22;9974;52.146;14.668;2024-03-08T04:12:12;-1.90;99.90
19652;DHT22;9974;52.146;14.668;2024-03-08T04:14:41;-1.80;99.90
19652;DHT22;9974;52.146;14.668;2024-03-08T04:17:07;-1.80;99.90
19652;DHT22;9974;52.146;14.668;2024-03-08T04:19:34;-1.60;99.90
19652;DHT22;9974;52.146;14.668;2024-03-08T04:22:00;-1.60;99.90
19652;DHT22;9974;52.146;14.668;2024-03-08T04:24:27;-3.00;99.90
19652;DHT22;9974;52.146;14.668;2024-03-08T04:26:53;-1.80;99.90
19652;DHT22;9974;52.146;14.668;2024-03-08T04:29:18;-1.80;99.90
19652;DHT22;9974;52.146;14.668;2024-03-08T04:31:44;-1.80;99.90
19652;DHT22;9974;52.146;14.668;2024-03-08T04:34:10;-1.90;99.90
19652;DHT22;9974;52.146;14.668;2024-03-08T04:36:36;-1.80;99.90
19652;DHT22;9974;52.146;14.668;2024-03-08T04:39:02;-1.80;99.90
19652;DHT22;9974;52.146;14.668;2024-03-08T04:41:27;-2.10;99.90
19652;DHT22;9974;52.146;14.668;2024-03-08T04:43:53;-2.00;99.90
19652;DHT22;9974;52.146;14.668;2024-03-08T04:46:18;-1.90;99.90
19652;DHT22;9974;52.146;14.668;2024-03-08T04:48:44;-1.80;99.90
19652;DHT22;9974;52.146;14.668;2024-03-08T04:51:10;-1.90;99.90
19652;DHT22;9974;52.146;14.668;2024-03-08T04:53:35;-2.10;99.90
19652;DHT22;9974;52.146;14.668;2024-03-08T04:56:01;-2.10;99.90
19652;DHT22;9974;52.146;14.668;2024-03-08T04:58:32;-2.10;99.90
19652;DHT22;9974;52.146;14.668;2024-03-08T05:01:00;-2.00;99.90
19652;DHT22;9974;52.146;14.668;2024-03-08T05:03:26;-1.90;99.90
19652;DHT22;9974;52.146;14.668;2024-03-08T05:05:52;-1.80;99.90
19652;DHT22;9974;52.146;14.668;2024-03-08T05:08:18;-1.80;99.90
19652;DHT22;9974;52.146;14.668;2024-03-08T05:10:45;-2.00;99.90
19652;DHT22;9974;52.146;14.668;2024-03-08T05:13:10;-2.20;99.90
19652;DHT22;9974;52.146;14.668;2024-03-08T05:15:38;-2.20;99.90
19652;DHT22;9974;52.146;14.668;2024-03-08T05:20:30;-2.00;99.90
19652;DHT22;9974;52.146;14.668;2024-03-08T05:22:56;-2.00;99.90
19652;DHT22;9974;52.146;14.668;2024-03-08T05:25:24;-2.00;99.90
19652;DHT22;9974;52.146;14.668;2024-03-08T05:27:49;-2.00;99.90
19652;DHT22;9974;52.146;14.668;2024-03-08T05:30:15;-2.20;99.90
19652;DHT22;9974;52.146;14.668;2024-03-08T05:32:41;-2.20;99.90
19652;DHT22;9974;52.146;14.668;2024-03-08T05:35:12;-2.00;99.90
19652;DHT22;9974;52.146;14.668;2024-03-08T05:37:38;-2.00;99.90
19652;DHT22;9974;52.146;14.668;2024-03-08T05:40:07;-2.20;99.90
19652;DHT22;9974;52.146;14.668;2024-03-08T05:42:35;-2.20;99.90
19652;DHT22;9974;52.146;14.668;2024-03-08T05:45:02;-2.00;99.90
19652;DHT22;9974;52.146;14.668;2024-03-08T05:47:28;-2.00;99.90
19652;DHT22;9974;52.146;14.668;2024-03-08T05:49:54;-2.00;99.90
19652;DHT22;9974;52.146;14.668;2024-03-08T05:52:20;-2.10;99.90
19652;DHT22;9974;52.146;14.668;2024-03-08T05:54:45;-2.00;99.90
19652;DHT22;9974;52.146;14.668;2024-03-08T05:57:12;-2.00;99.90
19652;DHT22;9974;52.146;14.668;2024-03-08T05:59:39;-2.00;99.90
19652;DHT22;9974;52.146;14.668;2024-03-08T06:02:05;-2.00;99.90
19652;DHT22;9974;52.146;14.668;2024-03-08T06:04:30;-1.90;99.90
19652;DHT22;9974;52.146;14.668;2024-03-08T06:06:56;-1.70;99.90
19652;DHT22;9974;52.146;14.668;2024-03-08T06:09:23;-1.70;99.90
19652;DHT22;9974;52.146;14.668;2024-03-08T06:11:52;-1.50;99.90
19652;DHT22;9974;52.146;14.668;2024-03-08T06:14:19;-1.50;99.90
19652;DHT22;9974;52.146;14.668;2024-03-08T06:16:45;-1.70;99.90
19652;DHT22;9974;52.146;14.668;2024-03-08T06:19:10;-1.70;99.90
19652;DHT22;9974;52.146;14.668;2024-03-08T06:21:37;-1.60;99.90
19652;DHT22;9974;52.146;14.668;2024-03-08T06:24:03;-1.40;99.90
19652;DHT22;9974;52.146;14.668;2024-03-08T06:26:28;-1.40;99.90
19652;DHT22;9974;52.146;14.668;2024-03-08T06:28:54;-1.40;99.90
19652;DHT22;9974;52.146;14.668;2024-03-08T06:31:20;-1.30;99.90
19652;DHT22;9974;52.146;14.668;2024-03-08T06:33:45;-1.20;99.90
19652;DHT22;9974;52.146;14.668;2024-03-08T06:36:11;-1.00;99.90
19652;DHT22;9974;52.146;14.668;2024-03-08T06:38:37;-1.00;99.90
19652;DHT22;9974;52.146;14.668;2024-03-08T06:41:10;-0.90;99.90
19652;DHT22;9974;52.146;14.668;2024-03-08T06:43:41;-0.90;99.90
19652;DHT22;9974;52.146;14.668;2024-03-08T06:46:10;-0.80;99.90
19652;DHT22;9974;52.146;14.668;2024-03-08T06:48:41;-0.70;99.90
19652;DHT22;9974;52.146;14.668;2024-03-08T06:51:06;-0.70;99.90
19652;DHT22;9974;52.146;14.668;2024-03-08T06:53:32;-0.50;99.90
19652;DHT22;9974;52.146;14.668;2024-03-08T06:55:58;-0.40;99.90
19652;DHT22;9974;52.146;14.668;2024-03-08T06:58:24;-0.20;99.90
19652;DHT22;9974;52.146;14.668;2024-03-08T07:00:49;-0.30;99.90
19652;DHT22;9974;52.146;14.668;2024-03-08T07:03:18;0.40;99.90
19652;DHT22;9974;52.146;14.668;2024-03-08T07:05:44;0.10;99.90
19652;DHT22;9974;52.146;14.668;2024-03-08T07:08:09;0.00;99.90
19652;DHT22;9974;52.146;14.668;2024-03-08T07:10:35;0.40;99.90
19652;DHT22;9974;52.146;14.668;2024-03-08T07:13:02;0.50;99.90
19652;DHT22;9974;52.146;14.668;2024-03-08T07:15:28;0.60;99.90
19652;DHT22;9974;52.146;14.668;2024-03-08T07:17:54;0.80;99.90
19652;DHT22;9974;52.146;14.668;2024-03-08T07:20:19;0.90;99.90
19652;DHT22;9974;52.146;14.668;2024-03-08T07:22:46;1.10;99.90
19652;DHT22;9974;52.146;14.668;2024-03-08T07:25:18;1.10;99.90
19652;DHT22;9974;52.146;14.668;2024-03-08T07:30:19;1.70;99.90
19652;DHT22;9974;52.146;14.668;2024-03-08T07:33:05;1.80;99.90
19652;DHT22;9974;52.146;14.668;2024-03-08T07:35:31;1.90;99.90
19652;DHT22;9974;52.146;14.668;2024-03-08T07:37:57;1.80;99.90
19652;DHT22;9974;52.146;14.668;2024-03-08T07:40:25;2.00;99.90
19652;DHT22;9974;52.146;14.668;2024-03-08T07:42:51;2.00;99.90
19652;DHT22;9974;52.146;14.668;2024-03-08T07:45:17;2.10;99.90
19652;DHT22;9974;52.146;14.668;2024-03-08T07:47:43;2.20;99.90
19652;DHT22;9974;52.146;14.668;2024-03-08T07:50:08;2.20;99.90
19652;DHT22;9974;52.146;14.668;2024-03-08T07:52:34;2.30;99.90
19652;DHT22;9974;52.146;14.668;2024-03-08T07:55:01;2.40;99.90
19652;DHT22;9974;52.146;14.668;2024-03-08T07:57:29;2.50;99.90
19652;DHT22;9974;52.146;14.668;2024-03-08T07:59:55;2.60;99.90
19652;DHT22;9974;52.146;14.668;2024-03-08T08:02:21;2.70;99.90
19652;DHT22;9974;52.146;14.668;2024-03-08T08:04:46;2.60;99.90
19652;DHT22;9974;52.146;14.668;2024-03-08T08:07:12;2.80;99.90
19652;DHT22;9974;52.146;14.668;2024-03-08T08:09:37;2.80;99.90
19652;DHT22;9974;52.146;14.668;2024-03-08T08:12:03;2.90;99.90
19652;DHT22;9974;52.146;14.668;2024-03-08T08:14:29;2.90;99.90
19652;DHT22;9974;52.146;14.668;2024-03-08T08:16:56;3.00;99.90
19652;DHT22;9974;52.146;14.668;2024-03-08T08:19:22;3.10;99.90
19652;DHT22;9974;52.146;14.668;2024-03-08T08:21:48;3.30;99.90
19652;DHT22;9974;52.146;14.668;2024-03-08T08:24:14;3.30;99.90
19652;DHT22;9974;52.146;14.668;2024-03-08T08:26:40;3.50;99.90
19652;DHT22;9974;52.146;14.668;2024-03-08T08:29:06;3.60;99.90
19652;DHT22;9974;52.146;14.668;2024-03-08T08:31:32;3.10;99.90
19652;DHT22;9974;52.146;14.668;2024-03-08T08:33:58;3.90;99.90
19652;DHT22;9974;52.146;14.668;2024-03-08T08:36:25;3.90;99.90
19652;DHT22;9974;52.146;14.668;2024-03-08T08:38:50;4.00;99.90
19652;DHT22;9974;52.146;14.668;2024-03-08T08:41:16;4.10;99.90
19652;DHT22;9974;52.146;14.668;2024-03-08T08:43:42;4.20;99.90
19652;DHT22;9974;52.146;14.668;2024-03-08T08:46:12;4.30;99.90
19652;DHT22;9974;52.146;14.668;2024-03-08T08:48:39;4.40;99.90
19652;DHT22;9974;52.146;14.668;2024-03-08T08:51:09;4.50;99.90
19652;DHT22;9974;52.146;14.668;2024-03-08T08:53:38;4.50;99.90
19652;DHT22;9974;52.146;14.668;2024-03-08T08:56:06;4.70;99.90
19652;DHT22;9974;52.146;14.668;2024-03-08T08:58:33;4.80;99.90
19652;DHT22;9974;52.146;14.668;2024-03-08T09:00:58;4.90;99.90
19652;DHT22;9974;52.146;14.668;2024-03-08T09:03:25;4.90;99.90
19652;DHT22;9974;52.146;14.668;2024-03-08T09:05:52;5.00;99.90
19652;DHT22;9974;52.146;14.668;2024-03-08T09:08:18;5.00;99.90
19652;DHT22;9974;52.146;14.668;2024-03-08T09:10:43;5.00;99.90
19652;DHT22;9974;52.146;14.668;2024-03-08T09:13:09;5.00;99.90
19652;DHT22;9974;52.146;14.668;2024-03-08T09:15:36;5.20;99.90
19652;DHT22;9974;52.146;14.668;2024-03-08T09:18:05;5.20;99.90
19652;DHT22;9974;52.146;14.668;2024-03-08T09:20:31;5.30;99.90
19652;DHT22;9974;52.146;14.668;2024-03-08T09:22:57;5.30;99.90
19652;DHT22;9974;52.146;14.668;2024-03-08T09:25:23;5.30;99.90
19652;DHT22;9974;52.146;14.668;2024-03-08T09:27:48;5.40;99.90
19652;DHT22;9974;52.146;14.668;2024-03-08T09:30:15;5.50;99.90
19652;DHT22;9974;52.146;14.668;2024-03-08T09:32:41;5.50;99.90
19652;DHT22;9974;52.146;14.668;2024-03-08T09:35:06;5.50;99.90
19652;DHT22;9974;52.146;14.668;2024-03-08T09:37:35;5.50;99.90
19652;DHT22;9974;52.146;14.668;2024-03-08T09:40:01;5.50;99.90
19652;DHT22;9974;52.146;14.668;2024-03-08T09:42:30;5.50;99.90
19652;DHT22;9974;52.146;14.668;2024-03-08T09:44:57;5.70;99.90
19652;DHT22;9974;52.146;14.668;2024-03-08T09:47:24;5.70;99.90
19652;DHT22;9974;52.146;14.668;2024-03-08T09:49:52;5.80;99.90
19652;DHT22;9974;52.146;14.668;2024-03-08T09:52:18;5.80;99.90
19652;DHT22;9974;52.146;14.668;2024-03-08T09:54:43;6.00;99.90
19652;DHT22;9974;52.146;14.668;2024-03-08T09:57:09;6.00;99.90
19652;DHT22;9974;52.146;14.668;2024-03-08T09:59:35;6.00;99.90
19652;DHT22;9974;52.146;14.668;2024-03-08T10:02:01;6.20;99.90
19652;DHT22;9974;52.146;14.668;2024-03-08T10:04:30;6.10;99.90
19652;DHT22;9974;52.146;14.668;2024-03-08T10:07:00;6.00;99.90
19652;DHT22;9974;52.146;14.668;2024-03-08T10:09:26;6.10;99.90
19652;DHT22;9974;52.146;14.668;2024-03-08T10:11:55;6.40;99.90
19652;DHT22;9974;52.146;14.668;2024-03-08T10:14:21;6.50;99.90
19652;DHT22;9974;52.146;14.668;2024-03-08T10:16:47;6.60;99.90
19652;DHT22;9974;52.146;14.668;2024-03-08T10:19:12;6.90;99.90
19652;DHT22;9974;52.146;14.668;2024-03-08T10:21:48;6.90;99.90
19652;DHT22;9974;52.146;14.668;2024-03-08T10:24:19;6.90;99.90
19652;DHT22;9974;52.146;14.668;2024-03-08T10:26:45;6.80;99.90
19652;DHT22;9974;52.146;14.668;2024-03-08T10:31:43;7.00;99.90
19652;DHT22;9974;52.146;14.668;2024-03-08T10:34:09;7.00;99.90
19652;DHT22;9974;52.146;14.668;2024-03-08T10:36:35;6.90;99.90
19652;DHT22;9974;52.146;14.668;2024-03-08T10:39:03;6.90;99.90
19652;DHT22;9974;52.146;14.668;2024-03-08T10:41:41;7.10;99.90
19652;DHT22;9974;52.146;14.668;2024-03-08T10:44:26;7.10;99.90
19652;DHT22;9974;52.146;14.668;2024-03-08T10:50:07;7.50;99.90
19652;DHT22;9974;52.146;14.668;2024-03-08T10:52:38;7.60;99.90
19652;DHT22;9974;52.146;14.668;2024-03-08T10:55:04;7.80;99.90
19652;DHT22;9974;52.146;14.668;2024-03-08T10:57:38;7.80;99.90
19652;DHT22;9974;52.146;14.668;2024-03-08T11:00:03;7.80;99.90
19652;DHT22;9974;52.146;14.668;2024-03-08T11:02:34;7.80;99.90
19652;DHT22;9974;52.146;14.668;2024-03-08T11:07:26;7.90;99.90
19652;DHT22;9974;52.146;14.668;2024-03-08T11:09:54;8.00;99.90
19652;DHT22;9974;52.146;14.668;2024-03-08T11:12:35;8.10;99.90
19652;DHT22;9974;52.146;14.668;2024-03-08T11:15:02;8.20;99.90
19652;DHT22;9974;52.146;14.668;2024-03-08T11:20:11;8.30;99.90
19652;DHT22;9974;52.146;14.668;2024-03-08T11:22:53;8.70;99.90
19652;DHT22;9974;52.146;14.668;2024-03-08T11:25:38;8.80;99.90
19652;DHT22;9974;52.146;14.668;2024-03-08T11:28:07;9.20;99.90
19652;DHT22;9974;52.146;14.668;2024-03-08T11:30:36;9.60;99.90
19652;DHT22;9974;52.146;14.668;2024-03-08T11:33:03;10.30;99.90
19652;DHT22;9974;52.146;14.668;2024-03-08T11:35:31;12.20;92.90
19652;DHT22;9974;52.146;14.668;2024-03-08T11:37:59;12.60;92.80
19652;DHT22;9974;52.146;14.668;2024-03-08T11:40:26;12.70;91.20
19652;DHT22;9974;52.146;14.668;2024-03-08T11:42:51;13.60;84.20
19652;DHT22;9974;52.146;14.668;2024-03-08T11:45:17;13.80;80.90
19652;DHT22;9974;52.146;14.668;2024-03-08T11:47:46;14.00;77.90
19652;DHT22;9974;52.146;14.668;2024-03-08T11:50:12;14.30;74.30
19652;DHT22;9974;52.146;14.668;2024-03-08T11:52:38;13.40;74.70
19652;DHT22;9974;52.146;14.668;2024-03-08T11:55:04;13.30;75.90
19652;DHT22;9974;52.146;14.668;2024-03-08T11:57:31;14.00;75.30
19652;DHT22;9974;52.146;14.668;2024-03-08T11:59:57;12.80;75.20
19652;DHT22;9974;52.146;14.668;2024-03-08T12:02:24;12.70;75.60
19652;DHT22;9974;52.146;14.668;2024-03-08T12:04:56;12.70;76.10
19652;DHT22;9974;52.146;14.668;2024-03-08T12:07:25;11.90;79.00
19652;DHT22;9974;52.146;14.668;2024-03-08T12:10:14;11.90;79.90
19652;DHT22;9974;52.146;14.668;2024-03-08T12:12:43;12.00;80.60
19652;DHT22;9974;52.146;14.668;2024-03-08T12:15:10;11.80;78.20
19652;DHT22;9974;52.146;14.668;2024-03-08T12:17:37;11.90;78.40
19652;DHT22;9974;52.146;14.668;2024-03-08T12:20:20;11.60;79.10
19652;DHT22;9974;52.146;14.668;2024-03-08T12:22:55;11.30;80.90
19652;DHT22;9974;52.146;14.668;2024-03-08T12:25:27;10.70;81.30
19652;DHT22;9974;52.146;14.668;2024-03-08T12:27:56;10.50;82.00
19652;DHT22;9974;52.146;14.668;2024-03-08T12:30:25;9.70;84.20
19652;DHT22;9974;52.146;14.668;2024-03-08T12:32:58;9.60;84.80
19652;DHT22;9974;52.146;14.668;2024-03-08T12:35:25;9.50;85.40
19652;DHT22;9974;52.146;14.668;2024-03-08T12:37:52;9.20;86.10
19652;DHT22;9974;52.146;14.668;2024-03-08T12:40:19;9.20;87.40
19652;DHT22;9974;52.146;14.668;2024-03-08T12:42:52;9.00;88.50
19652;DHT22;9974;52.146;14.668;2024-03-08T12:45:17;9.00;89.00
19652;DHT22;9974;52.146;14.668;2024-03-08T12:47:43;8.90;89.70
19652;DHT22;9974;52.146;14.668;2024-03-08T12:50:09;8.90;90.10
19652;DHT22;9974;52.146;14.668;2024-03-08T12:52:35;8.90;90.00
19652;DHT22;9974;52.146;14.668;2024-03-08T12:55:02;8.90;90.00
19652;DHT22;9974;52.146;14.668;2024-03-08T12:57:28;8.90;90.30
19652;DHT22;9974;52.146;14.668;2024-03-08T12:59:53;8.90;90.40
19652;DHT22;9974;52.146;14.668;2024-03-08T13:02:19;8.90;91.00
19652;DHT22;9974;52.146;14.668;2024-03-08T13:04:46;8.90;90.50
19652;DHT22;9974;52.146;14.668;2024-03-08T13:07:21;8.90;90.70
19652;DHT22;9974;52.146;14.668;2024-03-08T13:09:46;8.90;90.80
19652;DHT22;9974;52.146;14.668;2024-03-08T13:12:12;8.90;91.40
19652;DHT22;9974;52.146;14.668;2024-03-08T13:14:40;8.90;90.90
19652;DHT22;9974;52.146;14.668;2024-03-08T13:17:06;8.90;90.90
19652;DHT22;9974;52.146;14.668;2024-03-08T13:19:36;8.80;90.70
19652;DHT22;9974;52.146;14.668;2024-03-08T13:22:03;8.70;90.90
19652;DHT22;9974;52.146;14.668;2024-03-08T13:24:30;8.70;91.90
19652;DHT22;9974;52.146;14.668;2024-03-08T13:26:55;8.90;92.10
19652;DHT22;9974;52.146;14.668;2024-03-08T13:29:21;9.00;92.30
19652;DHT22;9974;52.146;14.668;2024-03-08T13:31:48;9.00;91.60
19652;DHT22;9974;52.146;14.668;2024-03-08T13:34:17;9.00;91.70
19652;DHT22;9974;52.146;14.668;2024-03-08T13:36:43;9.00;91.90
19652;DHT22;9974;52.146;14.668;2024-03-08T13:39:09;9.00;92.30
19652;DHT22;9974;52.146;14.668;2024-03-08T13:41:41;8.90;91.40
19652;DHT22;9974;52.146;14.668;2024-03-08T13:44:10;8.80;91.50
19652;DHT22;9974;52.146;14.668;2024-03-08T13:46:35;8.70;91.90
19652;DHT22;9974;52.146;14.668;2024-03-08T13:49:05;8.80;92.00
19652;DHT22;9974;52.146;14.668;2024-03-08T13:51:33;8.80;91.90
19652;DHT22;9974;52.146;14.668;2024-03-08T13:53:59;8.70;92.20
19652;DHT22;9974;52.146;14.668;2024-03-08T13:56:26;8.80;92.30
19652;DHT22;9974;52.146;14.668;2024-03-08T13:58:52;8.80;91.90
19652;DHT22;9974;52.146;14.668;2024-03-08T14:01:17;8.80;92.30
19652;DHT22;9974;52.146;14.668;2024-03-08T14:03:43;8.80;92.20
19652;DHT22;9974;52.146;14.668;2024-03-08T14:06:09;8.70;92.40
19652;DHT22;9974;52.146;14.668;2024-03-08T14:08:35;8.70;92.70
19652;DHT22;9974;52.146;14.668;2024-03-08T14:11:03;8.70;92.50
19652;DHT22;9974;52.146;14.668;2024-03-08T14:13:41;8.70;92.80
19652;DHT22;9974;52.146;14.668;2024-03-08T14:16:09;8.70;93.00
19652;DHT22;9974;52.146;14.668;2024-03-08T14:18:35;8.70;93.40
19652;DHT22;9974;52.146;14.668;2024-03-08T14:21:02;8.70;93.10
19652;DHT22;9974;52.146;14.668;2024-03-08T14:23:29;8.80;92.90
19652;DHT22;9974;52.146;14.668;2024-03-08T14:25:55;8.80;93.40
19652;DHT22;9974;52.146;14.668;2024-03-08T14:28:20;8.80;93.50
19652;DHT22;9974;52.146;14.668;2024-03-08T14:30:48;8.80;94.00
19652;DHT22;9974;52.146;14.668;2024-03-08T14:33:14;8.80;93.60
19652;DHT22;9974;52.146;14.668;2024-03-08T14:35:40;8.70;93.20
19652;DHT22;9974;52.146;14.668;2024-03-08T14:38:05;8.70;93.30
19652;DHT22;9974;52.146;14.668;2024-03-08T14:40:36;8.60;93.40
19652;DHT22;9974;52.146;14.668;2024-03-08T14:43:02;8.60;93.20
19652;DHT22;9974;52.146;14.668;2024-03-08T14:45:28;8.70;93.10
19652;DHT22;9974;52.146;14.668;2024-03-08T14:47:53;8.60;93.30
19652;DHT22;9974;52.146;14.668;2024-03-08T14:50:20;8.60;93.20
19652;DHT22;9974;52.146;14.668;2024-03-08T14:52:48;8.60;93.70
19652;DHT22;9974;52.146;14.668;2024-03-08T14:55:17;8.60;94.00
19652;DHT22;9974;52.146;14.668;2024-03-08T14:57:45;8.60;93.20
19652;DHT22;9974;52.146;14.668;2024-03-08T15:00:11;8.50;93.90
19652;DHT22;9974;52.146;14.668;2024-03-08T15:02:55;8.60;94.00
19652;DHT22;9974;52.146;14.668;2024-03-08T15:05:21;8.60;93.80
19652;DHT22;9974;52.146;14.668;2024-03-08T15:07:52;8.50;93.30
19652;DHT22;9974;52.146;14.668;2024-03-08T15:10:18;8.40;93.40
19652;DHT22;9974;52.146;14.668;2024-03-08T15:12:45;8.40;93.30
19652;DHT22;9974;52.146;14.668;2024-03-08T15:15:14;8.40;93.80
19652;DHT22;9974;52.146;14.668;2024-03-08T15:17:43;8.30;92.70
19652;DHT22;9974;52.146;14.668;2024-03-08T15:20:14;8.30;92.90
19652;DHT22;9974;52.146;14.668;2024-03-08T15:22:47;8.30;92.70
19652;DHT22;9974;52.146;14.668;2024-03-08T15:27:46;8.30;92.30
19652;DHT22;9974;52.146;14.668;2024-03-08T15:30:12;8.30;92.20
19652;DHT22;9974;52.146;14.668;2024-03-08T15:32:44;8.20;92.00
19652;DHT22;9974;52.146;14.668;2024-03-08T15:35:11;8.20;91.90
19652;DHT22;9974;52.146;14.668;2024-03-08T15:37:39;8.20;92.20
19652;DHT22;9974;52.146;14.668;2024-03-08T15:40:08;8.20;91.80
19652;DHT22;9974;52.146;14.668;2024-03-08T15:43:04;8.10;90.90
19652;DHT22;9974;52.146;14.668;2024-03-08T15:45:30;8.10;90.60
19652;DHT22;9974;52.146;14.668;2024-03-08T15:47:56;8.00;90.20
19652;DHT22;9974;52.146;14.668;2024-03-08T15:50:22;8.00;90.10
19652;DHT22;9974;52.146;14.668;2024-03-08T15:52:49;8.00;89.80
19652;DHT22;9974;52.146;14.668;2024-03-08T15:55:18;7.90;90.20
19652;DHT22;9974;52.146;14.668;2024-03-08T15:57:46;7.90;90.10
19652;DHT22;9974;52.146;14.668;2024-03-08T16:03:04;7.80;89.40
19652;DHT22;9974;52.146;14.668;2024-03-08T16:05:36;7.80;89.80